createdAt,value
2023-03-22T00:01:46.197Z,10.57
2023-03-22T00:04:12.682Z,12.57
2023-03-22T00:06:39.096Z,10.40
2023-03-22T00:09:05.708Z,9.38
2023-03-22T00:11:32.189Z,11.15
2023-03-22T00:13:58.920Z,11.55
2023-03-22T00:16:25.523Z,11.40
2023-03-22T00:18:51.948Z,10.57
2023-03-22T00:21:18.677Z,12.90
2023-03-22T00:23:45.503Z,13.82
2023-03-22T00:26:13.105Z,11.20
2023-03-22T00:28:39.745Z,13.32
2023-03-22T00:31:06.705Z,11.10
2023-03-22T00:33:33.337Z,10.68
2023-03-22T00:36:01.889Z,14.40
2023-03-22T00:38:42.970Z,10.65
2023-03-22T00:41:21.243Z,9.90
2023-03-22T00:43:48.519Z,11.05
2023-03-22T00:46:16.201Z,13.63
2023-03-22T00:48:43.080Z,11.65
2023-03-22T00:51:09.845Z,10.57
2023-03-22T00:53:37.002Z,9.52
2023-03-22T00:56:04.904Z,11.55
2023-03-22T00:58:31.553Z,11.13
2023-03-22T01:00:58.049Z,10.55
2023-03-22T01:03:24.762Z,10.63
2023-03-22T01:05:55.373Z,8.65
2023-03-22T01:08:23.026Z,9.88
2023-03-22T01:10:50.204Z,11.30
2023-03-22T01:13:17.962Z,8.65
2023-03-22T01:15:44.819Z,11.50
2023-03-22T01:18:11.276Z,10.40
2023-03-22T01:20:37.891Z,9.43
2023-03-22T01:23:04.711Z,11.38
2023-03-22T01:25:31.394Z,14.15
2023-03-22T01:27:57.910Z,11.32
2023-03-22T01:30:24.355Z,10.75
2023-03-22T01:32:51.270Z,10.30
2023-03-22T01:35:17.730Z,12.25
2023-03-22T01:37:44.141Z,12.35
2023-03-22T01:40:12.915Z,12.48
2023-03-22T01:42:39.339Z,9.98
2023-03-22T01:45:27.317Z,12.25
2023-03-22T01:47:59.791Z,11.13
2023-03-22T01:52:53.310Z,11.63
2023-03-22T01:55:22.757Z,9.27
2023-03-22T01:57:49.740Z,13.50
2023-03-22T02:00:19.004Z,11.13
2023-03-22T02:02:48.492Z,10.95
2023-03-22T02:05:15.401Z,11.75
2023-03-22T02:07:42.793Z,10.57
2023-03-22T02:10:14.173Z,10.10
2023-03-22T02:12:47.504Z,9.57
2023-03-22T02:15:16.799Z,11.48
2023-03-22T02:18:06.447Z,10.45
2023-03-22T02:20:55.556Z,13.27
2023-03-22T02:23:37.757Z,13.18
2023-03-22T02:26:13.072Z,12.23
2023-03-22T02:29:04.625Z,13.02
2023-03-22T02:32:01.897Z,12.05
2023-03-22T02:34:46.581Z,12.50
2023-03-22T02:37:37.668Z,10.98
2023-03-22T02:40:22.611Z,12.48
2023-03-22T02:43:01.351Z,11.98
2023-03-22T02:45:34.777Z,12.38
2023-03-22T02:48:14.073Z,11.85
2023-03-22T02:50:44.498Z,10.63
2023-03-22T02:53:16.364Z,11.80
2023-03-22T02:55:55.754Z,9.93
2023-03-22T02:58:39.232Z,11.27
2023-03-22T03:01:09.516Z,11.15
2023-03-22T03:03:39.852Z,10.88
2023-03-22T03:06:10.527Z,11.77
2023-03-22T03:08:38.204Z,10.68
2023-03-22T03:11:05.090Z,10.75
2023-03-22T03:13:31.477Z,11.35
2023-03-22T03:15:59.563Z,9.82
2023-03-22T03:18:54.116Z,11.95
2023-03-22T03:21:30.236Z,11.02
2023-03-22T03:24:18.648Z,13.15
2023-03-22T03:27:02.687Z,11.52
2023-03-22T03:29:39.865Z,11.35
2023-03-22T03:32:12.086Z,13.38
2023-03-22T03:34:43.294Z,12.18
2023-03-22T03:37:13.651Z,11.10
2023-03-22T03:39:44.366Z,11.15
2023-03-22T03:42:12.748Z,11.10
2023-03-22T03:44:39.389Z,14.45
2023-03-22T03:47:07.848Z,13.05
2023-03-22T03:49:34.715Z,11.02
2023-03-22T03:52:01.420Z,9.95
2023-03-22T03:54:27.806Z,11.75
2023-03-22T03:56:54.418Z,14.88
2023-03-22T03:59:20.939Z,12.75
2023-03-22T04:01:50.537Z,12.10
2023-03-22T04:04:26.683Z,11.07
2023-03-22T04:06:58.462Z,10.02
2023-03-22T04:09:29.607Z,12.55
2023-03-22T04:11:56.491Z,14.82
2023-03-22T04:14:23.495Z,14.43
2023-03-22T04:16:49.994Z,12.18
2023-03-22T04:19:16.775Z,12.32
2023-03-22T04:21:43.167Z,12.68
2023-03-22T04:24:09.930Z,13.80
2023-03-22T04:26:36.342Z,13.10
2023-03-22T04:29:03.310Z,13.30
2023-03-22T04:31:31.055Z,13.70
2023-03-22T04:33:57.493Z,11.75
2023-03-22T04:36:24.778Z,12.70
2023-03-22T04:38:51.571Z,14.85
2023-03-22T04:41:18.417Z,10.15
2023-03-22T04:43:46.826Z,13.75
2023-03-22T04:46:13.969Z,11.80
2023-03-22T04:48:41.655Z,12.15
2023-03-22T04:51:09.313Z,14.88
2023-03-22T04:53:38.627Z,15.98
2023-03-22T04:56:07.026Z,12.43
2023-03-22T04:58:35.245Z,13.20
2023-03-22T05:01:02.016Z,12.85
2023-03-22T05:03:28.428Z,13.95
2023-03-22T05:05:57.029Z,13.50
2023-03-22T05:08:27.254Z,12.57
2023-03-22T05:10:55.328Z,12.90
2023-03-22T05:13:23.574Z,14.05
2023-03-22T05:15:51.648Z,12.57
2023-03-22T05:18:20.535Z,15.15
2023-03-22T05:20:47.922Z,14.95
2023-03-22T05:23:18.978Z,11.63
2023-03-22T05:25:46.754Z,13.38
2023-03-22T05:28:14.273Z,13.27
2023-03-22T05:30:42.058Z,12.80
2023-03-22T05:33:09.450Z,13.50
2023-03-22T05:35:38.224Z,10.27
2023-03-22T05:38:05.681Z,12.27
2023-03-22T05:40:32.435Z,13.73
2023-03-22T05:42:58.952Z,14.15
2023-03-22T05:45:25.740Z,15.18
2023-03-22T05:47:52.311Z,14.05
2023-03-22T05:50:20.932Z,15.30
2023-03-22T05:52:47.810Z,13.77
2023-03-22T05:55:17.395Z,15.38
2023-03-22T05:57:44.784Z,10.80
2023-03-22T06:00:14.954Z,15.80
2023-03-22T06:02:42.766Z,15.55
2023-03-22T06:05:11.156Z,12.55
2023-03-22T06:07:38.230Z,14.60
2023-03-22T06:10:05.725Z,14.50
2023-03-22T06:12:32.660Z,12.80
2023-03-22T06:14:59.299Z,13.70
2023-03-22T06:17:25.692Z,14.93
2023-03-22T06:19:53.275Z,15.65
2023-03-22T06:22:19.829Z,12.40
2023-03-22T06:24:46.336Z,13.88
2023-03-22T06:27:12.869Z,13.68
2023-03-22T06:29:39.471Z,13.80
2023-03-22T06:32:06.563Z,11.10
2023-03-22T06:34:33.468Z,12.23
2023-03-22T06:37:00.657Z,11.85
2023-03-22T06:39:27.045Z,15.43
2023-03-22T06:41:53.534Z,9.10
2023-03-22T06:44:20.016Z,12.88
2023-03-22T06:46:47.486Z,14.07
2023-03-22T06:49:13.862Z,13.43
2023-03-22T06:51:40.254Z,10.80
2023-03-22T06:54:06.659Z,15.70
2023-03-22T06:56:33.074Z,9.68
2023-03-22T06:58:59.520Z,13.45
2023-03-22T07:01:26.322Z,10.18
2023-03-22T07:03:52.754Z,12.73
2023-03-22T07:06:19.112Z,10.35
2023-03-22T07:08:45.634Z,9.75
2023-03-22T07:11:12.029Z,10.85
2023-03-22T07:13:38.483Z,13.00
2023-03-22T07:16:05.325Z,10.73
2023-03-22T07:18:31.847Z,10.13
2023-03-22T07:20:58.260Z,8.50
2023-03-22T07:23:24.772Z,8.60
2023-03-22T07:25:51.964Z,11.75
2023-03-22T07:28:18.351Z,8.10
2023-03-22T07:30:44.752Z,9.10
2023-03-22T07:33:11.339Z,7.45
2023-03-22T07:35:38.448Z,9.40
2023-03-22T07:38:05.319Z,8.95
2023-03-22T07:40:31.769Z,10.50
2023-03-22T07:42:59.058Z,8.40
2023-03-22T07:45:26.054Z,11.57
2023-03-22T07:47:52.533Z,10.30
2023-03-22T07:50:19.318Z,8.70
2023-03-22T07:52:45.892Z,11.57
2023-03-22T07:55:14.209Z,8.63
2023-03-22T07:57:40.857Z,11.45
2023-03-22T08:00:10.440Z,11.23
2023-03-22T08:02:37.686Z,10.25
2023-03-22T08:05:05.387Z,9.85
2023-03-22T08:07:32.379Z,8.20
2023-03-22T08:09:59.320Z,11.05
2023-03-22T08:12:28.066Z,9.77
2023-03-22T08:14:54.502Z,10.52
2023-03-22T08:17:20.960Z,10.05
2023-03-22T08:19:47.354Z,8.13
2023-03-22T08:22:13.772Z,7.90
2023-03-22T08:24:40.244Z,10.95
2023-03-22T08:27:06.706Z,9.48
2023-03-22T08:29:33.847Z,8.63
2023-03-22T08:32:02.265Z,9.38
2023-03-22T08:34:29.913Z,11.13
2023-03-22T08:36:56.360Z,10.73
2023-03-22T08:39:24.743Z,8.05
2023-03-22T08:41:51.390Z,10.60
2023-03-22T08:44:17.767Z,10.48
2023-03-22T08:46:44.159Z,9.18
2023-03-22T08:49:10.708Z,11.63
2023-03-22T08:51:37.097Z,8.68
2023-03-22T08:54:03.870Z,8.25
2023-03-22T08:56:30.501Z,10.55
2023-03-22T08:58:56.884Z,7.05
2023-03-22T09:01:23.392Z,8.40
2023-03-22T09:03:49.904Z,9.00
2023-03-22T09:06:16.353Z,8.65
2023-03-22T09:08:42.763Z,8.55
2023-03-22T09:11:10.288Z,8.20
2023-03-22T09:13:36.728Z,8.43
2023-03-22T09:16:04.290Z,6.53
2023-03-22T09:18:31.009Z,8.07
2023-03-22T09:20:57.741Z,8.63
2023-03-22T09:23:24.117Z,7.05
2023-03-22T09:25:51.096Z,7.22
2023-03-22T09:28:17.739Z,7.85
2023-03-22T09:30:46.481Z,8.70
2023-03-22T09:33:12.962Z,8.40
2023-03-22T09:35:43.530Z,9.38
2023-03-22T09:38:10.886Z,7.75
2023-03-22T09:40:39.735Z,8.55
2023-03-22T09:43:09.343Z,7.78
2023-03-22T09:45:42.795Z,7.88
2023-03-22T09:48:17.640Z,8.02
2023-03-22T09:50:47.150Z,6.97
2023-03-22T09:53:15.870Z,8.27
2023-03-22T09:55:51.042Z,6.68
2023-03-22T09:58:42.379Z,6.80
2023-03-22T10:01:29.159Z,5.82
2023-03-22T10:04:18.883Z,10.25
2023-03-22T10:06:49.376Z,6.45
2023-03-22T10:09:36.215Z,8.80
2023-03-22T10:12:26.802Z,7.30
2023-03-22T10:15:04.462Z,9.55
2023-03-22T10:17:31.342Z,8.38
2023-03-22T10:20:07.982Z,4.65
2023-03-22T10:22:38.448Z,8.07
2023-03-22T10:25:06.188Z,6.80
2023-03-22T10:27:33.977Z,5.95
2023-03-22T10:30:12.733Z,7.90
2023-03-22T10:32:56.765Z,6.18
2023-03-22T10:35:23.924Z,7.28
2023-03-22T10:37:51.925Z,5.05
2023-03-22T10:40:29.056Z,4.63
2023-03-22T10:43:03.369Z,6.32
2023-03-22T10:45:32.099Z,6.68
2023-03-22T10:48:14.027Z,4.63
2023-03-22T10:50:43.467Z,6.38
2023-03-22T10:53:24.793Z,7.43
2023-03-22T10:55:51.368Z,5.05
2023-03-22T10:58:20.535Z,5.00
2023-03-22T11:00:58.485Z,4.97
2023-03-22T11:03:44.145Z,5.60
2023-03-22T11:06:27.304Z,7.05
2023-03-22T11:08:57.958Z,6.55
2023-03-22T11:11:28.599Z,4.35
2023-03-22T11:14:24.224Z,6.35
2023-03-22T11:16:57.854Z,4.72
2023-03-22T11:19:27.933Z,9.00
2023-03-22T11:21:55.524Z,3.90
2023-03-22T11:24:24.811Z,4.05
2023-03-22T11:27:17.152Z,4.60
2023-03-22T11:29:46.174Z,8.57
2023-03-22T11:32:21.958Z,5.72
2023-03-22T11:34:48.414Z,4.43
2023-03-22T11:37:18.239Z,8.00
2023-03-22T11:39:49.921Z,5.10
2023-03-22T11:42:19.752Z,6.07
2023-03-22T11:44:46.325Z,6.45
2023-03-22T11:47:13.982Z,8.13
2023-03-22T11:49:46.361Z,5.43
2023-03-22T11:54:42.658Z,5.88
2023-03-22T11:57:19.515Z,5.65
2023-03-22T11:59:49.435Z,4.95
2023-03-22T12:02:28.100Z,6.47
2023-03-22T12:05:03.658Z,6.80
2023-03-22T12:07:31.192Z,5.63
2023-03-22T12:10:06.775Z,5.50
2023-03-22T12:12:37.312Z,5.40
2023-03-22T12:15:21.817Z,6.68
2023-03-22T12:18:00.997Z,6.65
2023-03-22T12:20:35.179Z,4.45
2023-03-22T12:23:01.893Z,5.65
2023-03-22T12:25:35.746Z,6.60
2023-03-22T12:28:06.797Z,4.82
2023-03-22T12:30:48.059Z,5.10
2023-03-22T12:33:19.571Z,6.88
2023-03-22T12:35:47.395Z,7.43
2023-03-22T12:38:33.885Z,6.40
2023-03-22T12:41:03.107Z,6.88
2023-03-22T12:43:51.268Z,6.00
2023-03-22T12:46:21.573Z,8.75
2023-03-22T12:49:21.291Z,6.30
2023-03-22T12:51:48.943Z,4.60
2023-03-22T12:54:16.585Z,6.78
2023-03-22T12:56:46.505Z,6.10
2023-03-22T12:59:18.068Z,13.80
2023-03-22T13:01:52.149Z,9.77
2023-03-22T13:04:37.012Z,10.00
2023-03-22T13:07:16.163Z,5.88
2023-03-22T13:09:44.769Z,8.25
2023-03-22T13:12:17.340Z,5.43
2023-03-22T13:14:50.000Z,5.07
2023-03-22T13:17:22.293Z,5.78
2023-03-22T13:20:06.364Z,7.72
2023-03-22T13:22:38.904Z,5.43
2023-03-22T13:25:13.637Z,7.80
2023-03-22T13:27:45.829Z,5.38
2023-03-22T13:30:21.728Z,6.70
2023-03-22T13:32:56.021Z,5.60
2023-03-22T13:35:45.051Z,4.20
2023-03-22T13:38:34.177Z,6.32
2023-03-22T13:41:15.852Z,4.10
2023-03-22T13:43:53.964Z,8.38
2023-03-22T13:46:20.711Z,4.80
2023-03-22T13:48:47.279Z,5.38
2023-03-22T13:51:23.102Z,4.22
2023-03-22T13:54:17.454Z,4.13
2023-03-22T13:56:43.719Z,5.40
2023-03-22T13:59:13.312Z,6.40
2023-03-22T14:01:47.503Z,6.63
2023-03-22T14:04:22.521Z,6.90
2023-03-22T14:06:59.745Z,3.58
2023-03-22T14:09:31.540Z,4.70
2023-03-22T14:12:07.268Z,3.80
2023-03-22T14:14:36.791Z,4.47
2023-03-22T14:17:17.086Z,8.45
2023-03-22T14:19:43.499Z,4.88
